Terminal Aerodrome Forecast
Issued by NWS

Home | Current Version | Previous Version | Graphics & Text | Print | Product List | Glossary On
Versions: 1 2 3 4 5 6 7 8 9 10 11 12 13
000
FTUS43 KMPX 070500
TAFRNH
TAF
KRNH 070520Z 0706/0806 30005KT P6SM SKC
     FM071100 27004KT P6SM BKN150
     FM071500 27008KT P6SM SCT040 BKN080 PROB30 0721/0802 3SM -TSRA
      OVC025CB=

USA.gov is the U.S. government's official web portal to all federal, state and local government web resources and services.